Reykjavik, Iceland
Current Conditions -  °F | °C
As of 3:00 AM on Monday 24 Nov 2014 (Local Time) from BIRK Reporting Station
Light Rain Light Rain  
Wind Chill: 34°   Ceiling: 3800
Heat Index: 45°   Visibility: 6mi
Dew Point: 39°   Wind: 37mph
Humidity: 81%   Direction: 120°ESE
Pressure: 29.26"   Gusts: 53mph
Location:  64.14°N, 21.92°W
Report Text: BIRK 240300Z 12032G46KT 9000 -RA SCT030 BKN038 OVC043 07/04 Q0991
Loading
Personal Weather Stations






























Interactive Weather Map New forecast layout! Learn more

10-Day Weather Forecast

Advertisements
Track Severe Weather on mobile